sensor_id;sensor_type;location;lat;lon;timestamp;temperature;humidity
64796;DHT22;51229;51.980;6.722;2023-04-05T00:01:30;4.80;99.90
64796;DHT22;51229;51.980;6.722;2023-04-05T00:03:57;4.80;99.90
64796;DHT22;51229;51.980;6.722;2023-04-05T00:06:27;4.70;99.90
64796;DHT22;51229;51.980;6.722;2023-04-05T00:08:58;4.70;99.90
64796;DHT22;51229;51.980;6.722;2023-04-05T00:11:28;4.60;99.90
64796;DHT22;51229;51.980;6.722;2023-04-05T00:13:58;4.60;99.90
64796;DHT22;51229;51.980;6.722;2023-04-05T00:16:26;4.60;99.90
64796;DHT22;51229;51.980;6.722;2023-04-05T00:18:52;4.60;99.90
64796;DHT22;51229;51.980;6.722;2023-04-05T00:21:19;4.50;99.90
64796;DHT22;51229;51.980;6.722;2023-04-05T00:23:47;4.40;99.90
64796;DHT22;51229;51.980;6.722;2023-04-05T00:26:13;4.40;99.90
64796;DHT22;51229;51.980;6.722;2023-04-05T00:28:46;4.40;99.90
64796;DHT22;51229;51.980;6.722;2023-04-05T00:31:12;4.40;99.90
64796;DHT22;51229;51.980;6.722;2023-04-05T00:33:38;4.40;99.90
64796;DHT22;51229;51.980;6.722;2023-04-05T00:36:14;4.30;99.90
64796;DHT22;51229;51.980;6.722;2023-04-05T00:38:41;4.30;99.90
64796;DHT22;51229;51.980;6.722;2023-04-05T00:41:08;4.20;99.90
64796;DHT22;51229;51.980;6.722;2023-04-05T00:43:34;4.20;99.90
64796;DHT22;51229;51.980;6.722;2023-04-05T00:46:00;4.10;99.90
64796;DHT22;51229;51.980;6.722;2023-04-05T00:48:27;4.10;99.90
64796;DHT22;51229;51.980;6.722;2023-04-05T00:50:53;4.10;99.90
64796;DHT22;51229;51.980;6.722;2023-04-05T00:53:20;4.10;99.90
64796;DHT22;51229;51.980;6.722;2023-04-05T00:55:46;4.00;99.90
64796;DHT22;51229;51.980;6.722;2023-04-05T00:58:16;4.00;99.90
64796;DHT22;51229;51.980;6.722;2023-04-05T01:03:33;3.90;99.90
64796;DHT22;51229;51.980;6.722;2023-04-05T01:06:35;3.80;99.90
64796;DHT22;51229;51.980;6.722;2023-04-05T01:09:17;3.80;99.90
64796;DHT22;51229;51.980;6.722;2023-04-05T01:11:46;3.80;99.90
64796;DHT22;51229;51.980;6.722;2023-04-05T01:14:13;3.70;99.90
64796;DHT22;51229;51.980;6.722;2023-04-05T01:16:38;3.70;99.90
64796;DHT22;51229;51.980;6.722;2023-04-05T01:19:04;3.70;99.90
64796;DHT22;51229;51.980;6.722;2023-04-05T01:30:04;3.60;99.90
64796;DHT22;51229;51.980;6.722;2023-04-05T01:38:08;3.40;99.90
64796;DHT22;51229;51.980;6.722;2023-04-05T01:40:38;3.40;99.90
64796;DHT22;51229;51.980;6.722;2023-04-05T01:43:15;3.40;99.90
64796;DHT22;51229;51.980;6.722;2023-04-05T01:45:41;3.30;99.90
64796;DHT22;51229;51.980;6.722;2023-04-05T01:48:09;3.20;99.90
64796;DHT22;51229;51.980;6.722;2023-04-05T01:50:35;3.10;99.90
64796;DHT22;51229;51.980;6.722;2023-04-05T01:53:00;3.10;99.90
64796;DHT22;51229;51.980;6.722;2023-04-05T01:55:26;3.10;99.90
64796;DHT22;51229;51.980;6.722;2023-04-05T01:57:54;3.10;99.90
64796;DHT22;51229;51.980;6.722;2023-04-05T02:00:21;3.10;99.90
64796;DHT22;51229;51.980;6.722;2023-04-05T02:02:47;3.10;99.90
64796;DHT22;51229;51.980;6.722;2023-04-05T02:05:13;3.00;99.90
64796;DHT22;51229;51.980;6.722;2023-04-05T02:07:40;2.90;99.90
64796;DHT22;51229;51.980;6.722;2023-04-05T02:10:09;2.90;99.90
64796;DHT22;51229;51.980;6.722;2023-04-05T02:12:34;2.80;99.90
64796;DHT22;51229;51.980;6.722;2023-04-05T02:15:01;2.80;99.90
64796;DHT22;51229;51.980;6.722;2023-04-05T02:17:27;2.70;99.90
64796;DHT22;51229;51.980;6.722;2023-04-05T02:19:59;2.60;99.90
64796;DHT22;51229;51.980;6.722;2023-04-05T02:22:28;2.70;99.90
64796;DHT22;51229;51.980;6.722;2023-04-05T02:24:56;2.70;99.90
64796;DHT22;51229;51.980;6.722;2023-04-05T02:27:21;2.70;99.90
64796;DHT22;51229;51.980;6.722;2023-04-05T02:29:47;2.70;99.90
64796;DHT22;51229;51.980;6.722;2023-04-05T02:32:13;2.70;99.90
64796;DHT22;51229;51.980;6.722;2023-04-05T02:34:39;2.60;99.90
64796;DHT22;51229;51.980;6.722;2023-04-05T02:37:06;2.60;99.90
64796;DHT22;51229;51.980;6.722;2023-04-05T02:39:32;2.50;99.90
64796;DHT22;51229;51.980;6.722;2023-04-05T02:41:57;2.50;99.90
64796;DHT22;51229;51.980;6.722;2023-04-05T02:44:24;2.40;99.90
64796;DHT22;51229;51.980;6.722;2023-04-05T02:46:52;2.40;99.90
64796;DHT22;51229;51.980;6.722;2023-04-05T02:49:20;2.40;99.90
64796;DHT22;51229;51.980;6.722;2023-04-05T02:51:46;2.40;99.90
64796;DHT22;51229;51.980;6.722;2023-04-05T02:54:12;2.30;99.90
64796;DHT22;51229;51.980;6.722;2023-04-05T02:56:39;2.30;99.90
64796;DHT22;51229;51.980;6.722;2023-04-05T02:59:10;2.20;99.90
64796;DHT22;51229;51.980;6.722;2023-04-05T03:01:38;2.20;99.90
64796;DHT22;51229;51.980;6.722;2023-04-05T03:04:09;2.20;99.90
64796;DHT22;51229;51.980;6.722;2023-04-05T03:06:38;2.20;99.90
64796;DHT22;51229;51.980;6.722;2023-04-05T03:09:06;2.10;99.90
64796;DHT22;51229;51.980;6.722;2023-04-05T03:11:32;2.10;99.90
64796;DHT22;51229;51.980;6.722;2023-04-05T03:13:58;2.10;99.90
64796;DHT22;51229;51.980;6.722;2023-04-05T03:16:37;2.00;99.90
64796;DHT22;51229;51.980;6.722;2023-04-05T03:19:09;2.00;99.90
64796;DHT22;51229;51.980;6.722;2023-04-05T03:21:39;1.90;99.90
64796;DHT22;51229;51.980;6.722;2023-04-05T03:24:15;1.90;99.90
64796;DHT22;51229;51.980;6.722;2023-04-05T03:26:45;1.80;99.90
64796;DHT22;51229;51.980;6.722;2023-04-05T03:29:12;1.80;99.90
64796;DHT22;51229;51.980;6.722;2023-04-05T03:31:38;1.80;99.90
64796;DHT22;51229;51.980;6.722;2023-04-05T03:34:07;1.70;99.90
64796;DHT22;51229;51.980;6.722;2023-04-05T03:36:41;1.70;99.90
64796;DHT22;51229;51.980;6.722;2023-04-05T03:39:11;1.70;99.90
64796;DHT22;51229;51.980;6.722;2023-04-05T03:41:38;1.60;99.90
64796;DHT22;51229;51.980;6.722;2023-04-05T03:44:05;1.60;99.90
64796;DHT22;51229;51.980;6.722;2023-04-05T03:46:32;1.60;99.90
64796;DHT22;51229;51.980;6.722;2023-04-05T03:48:58;1.50;99.90
64796;DHT22;51229;51.980;6.722;2023-04-05T03:51:25;1.50;99.90
64796;DHT22;51229;51.980;6.722;2023-04-05T03:53:51;1.50;99.90
64796;DHT22;51229;51.980;6.722;2023-04-05T03:56:20;1.50;99.90
64796;DHT22;51229;51.980;6.722;2023-04-05T03:58:48;1.50;99.90
64796;DHT22;51229;51.980;6.722;2023-04-05T04:01:15;1.50;99.90
64796;DHT22;51229;51.980;6.722;2023-04-05T04:03:41;1.50;99.90
64796;DHT22;51229;51.980;6.722;2023-04-05T04:06:07;1.40;99.90
64796;DHT22;51229;51.980;6.722;2023-04-05T04:08:33;1.40;99.90
64796;DHT22;51229;51.980;6.722;2023-04-05T04:10:59;1.40;99.90
64796;DHT22;51229;51.980;6.722;2023-04-05T04:13:32;1.30;99.90
64796;DHT22;51229;51.980;6.722;2023-04-05T04:16:02;1.20;99.90
64796;DHT22;51229;51.980;6.722;2023-04-05T04:18:46;1.10;99.90
64796;DHT22;51229;51.980;6.722;2023-04-05T04:21:24;1.10;99.90
64796;DHT22;51229;51.980;6.722;2023-04-05T04:24:11;1.10;99.90
64796;DHT22;51229;51.980;6.722;2023-04-05T04:26:48;1.10;99.90
64796;DHT22;51229;51.980;6.722;2023-04-05T04:29:22;1.00;99.90
64796;DHT22;51229;51.980;6.722;2023-04-05T04:32:17;1.00;99.90
64796;DHT22;51229;51.980;6.722;2023-04-05T04:35:22;0.80;99.90
64796;DHT22;51229;51.980;6.722;2023-04-05T04:38:18;0.80;99.90
64796;DHT22;51229;51.980;6.722;2023-04-05T04:41:06;0.90;99.90
64796;DHT22;51229;51.980;6.722;2023-04-05T04:43:41;0.80;99.90
64796;DHT22;51229;51.980;6.722;2023-04-05T04:46:16;0.80;99.90
64796;DHT22;51229;51.980;6.722;2023-04-05T04:49:02;0.80;99.90
64796;DHT22;51229;51.980;6.722;2023-04-05T04:51:31;0.80;99.90
64796;DHT22;51229;51.980;6.722;2023-04-05T04:53:57;0.80;99.90
64796;DHT22;51229;51.980;6.722;2023-04-05T04:56:23;0.80;99.90
64796;DHT22;51229;51.980;6.722;2023-04-05T04:58:53;0.70;99.90
64796;DHT22;51229;51.980;6.722;2023-04-05T05:01:19;0.70;99.90
64796;DHT22;51229;51.980;6.722;2023-04-05T05:03:47;0.70;99.90
64796;DHT22;51229;51.980;6.722;2023-04-05T05:06:18;0.70;99.90
64796;DHT22;51229;51.980;6.722;2023-04-05T05:08:44;0.70;99.90
64796;DHT22;51229;51.980;6.722;2023-04-05T05:11:11;0.70;99.90
64796;DHT22;51229;51.980;6.722;2023-04-05T05:13:37;0.70;99.90
64796;DHT22;51229;51.980;6.722;2023-04-05T05:16:03;0.60;99.90
64796;DHT22;51229;51.980;6.722;2023-04-05T05:18:30;0.60;99.90
64796;DHT22;51229;51.980;6.722;2023-04-05T05:20:55;0.60;99.90
64796;DHT22;51229;51.980;6.722;2023-04-05T05:23:21;0.60;99.90
64796;DHT22;51229;51.980;6.722;2023-04-05T05:25:47;0.60;99.90
64796;DHT22;51229;51.980;6.722;2023-04-05T05:28:14;0.60;99.90
64796;DHT22;51229;51.980;6.722;2023-04-05T05:30:41;0.60;99.90
64796;DHT22;51229;51.980;6.722;2023-04-05T05:33:06;0.60;99.90
64796;DHT22;51229;51.980;6.722;2023-04-05T05:35:32;0.60;99.90
64796;DHT22;51229;51.980;6.722;2023-04-05T05:37:58;0.60;99.90
64796;DHT22;51229;51.980;6.722;2023-04-05T05:40:23;0.50;99.90
64796;DHT22;51229;51.980;6.722;2023-04-05T05:42:51;0.70;99.90
64796;DHT22;51229;51.980;6.722;2023-04-05T05:45:16;0.80;99.90
64796;DHT22;51229;51.980;6.722;2023-04-05T05:47:42;0.90;99.90
64796;DHT22;51229;51.980;6.722;2023-04-05T05:50:08;0.90;99.90
64796;DHT22;51229;51.980;6.722;2023-04-05T05:52:34;0.90;99.90
64796;DHT22;51229;51.980;6.722;2023-04-05T05:55:00;0.90;99.90
64796;DHT22;51229;51.980;6.722;2023-04-05T05:57:26;1.00;99.90
64796;DHT22;51229;51.980;6.722;2023-04-05T05:59:52;1.00;99.90
64796;DHT22;51229;51.980;6.722;2023-04-05T06:02:18;1.00;99.90
64796;DHT22;51229;51.980;6.722;2023-04-05T06:04:44;1.10;99.90
64796;DHT22;51229;51.980;6.722;2023-04-05T06:07:10;1.20;99.90
64796;DHT22;51229;51.980;6.722;2023-04-05T06:09:35;1.30;99.90
64796;DHT22;51229;51.980;6.722;2023-04-05T06:12:01;1.40;99.90
64796;DHT22;51229;51.980;6.722;2023-04-05T06:14:27;1.40;99.90
64796;DHT22;51229;51.980;6.722;2023-04-05T06:16:54;1.50;99.90
64796;DHT22;51229;51.980;6.722;2023-04-05T06:19:21;1.60;99.90
64796;DHT22;51229;51.980;6.722;2023-04-05T06:21:47;1.70;99.90
64796;DHT22;51229;51.980;6.722;2023-04-05T06:24:12;1.60;99.90
64796;DHT22;51229;51.980;6.722;2023-04-05T06:26:38;1.50;99.90
64796;DHT22;51229;51.980;6.722;2023-04-05T06:29:03;1.30;99.90
64796;DHT22;51229;51.980;6.722;2023-04-05T06:31:31;1.50;99.90
64796;DHT22;51229;51.980;6.722;2023-04-05T06:33:58;1.70;99.90
64796;DHT22;51229;51.980;6.722;2023-04-05T06:36:23;1.80;99.90
64796;DHT22;51229;51.980;6.722;2023-04-05T06:38:49;2.00;99.90
64796;DHT22;51229;51.980;6.722;2023-04-05T06:41:15;2.00;99.90
64796;DHT22;51229;51.980;6.722;2023-04-05T06:43:41;2.40;99.90
64796;DHT22;51229;51.980;6.722;2023-04-05T06:46:07;2.30;99.90
64796;DHT22;51229;51.980;6.722;2023-04-05T06:48:35;2.40;99.90
64796;DHT22;51229;51.980;6.722;2023-04-05T06:51:02;2.60;99.90
64796;DHT22;51229;51.980;6.722;2023-04-05T06:53:28;2.70;99.90
64796;DHT22;51229;51.980;6.722;2023-04-05T06:55:55;3.00;99.90
64796;DHT22;51229;51.980;6.722;2023-04-05T06:58:21;2.80;99.90
64796;DHT22;51229;51.980;6.722;2023-04-05T07:00:48;2.70;99.90
64796;DHT22;51229;51.980;6.722;2023-04-05T07:03:14;2.80;99.90
64796;DHT22;51229;51.980;6.722;2023-04-05T07:05:41;3.10;99.90
64796;DHT22;51229;51.980;6.722;2023-04-05T07:08:14;3.10;99.90
64796;DHT22;51229;51.980;6.722;2023-04-05T07:10:39;3.50;99.90
64796;DHT22;51229;51.980;6.722;2023-04-05T07:13:06;3.50;99.90
64796;DHT22;51229;51.980;6.722;2023-04-05T07:15:31;3.80;99.90
64796;DHT22;51229;51.980;6.722;2023-04-05T07:17:57;4.20;99.90
64796;DHT22;51229;51.980;6.722;2023-04-05T07:20:23;4.60;99.90
64796;DHT22;51229;51.980;6.722;2023-04-05T07:22:48;4.80;99.90
64796;DHT22;51229;51.980;6.722;2023-04-05T07:25:14;5.00;99.90
64796;DHT22;51229;51.980;6.722;2023-04-05T07:27:40;4.50;99.90
64796;DHT22;51229;51.980;6.722;2023-04-05T07:30:06;4.80;99.90
64796;DHT22;51229;51.980;6.722;2023-04-05T07:32:33;5.80;99.90
64796;DHT22;51229;51.980;6.722;2023-04-05T07:34:59;6.00;99.90
64796;DHT22;51229;51.980;6.722;2023-04-05T07:37:24;6.20;99.90
64796;DHT22;51229;51.980;6.722;2023-04-05T07:39:51;6.20;98.20
64796;DHT22;51229;51.980;6.722;2023-04-05T07:42:17;6.30;99.90
64796;DHT22;51229;51.980;6.722;2023-04-05T07:44:46;7.10;99.90
64796;DHT22;51229;51.980;6.722;2023-04-05T07:47:11;7.50;94.90
64796;DHT22;51229;51.980;6.722;2023-04-05T07:49:37;7.20;93.00
64796;DHT22;51229;51.980;6.722;2023-04-05T07:52:03;6.80;91.10
64796;DHT22;51229;51.980;6.722;2023-04-05T07:54:32;6.90;89.40
64796;DHT22;51229;51.980;6.722;2023-04-05T07:57:04;7.10;90.70
64796;DHT22;51229;51.980;6.722;2023-04-05T07:59:30;6.70;88.80
64796;DHT22;51229;51.980;6.722;2023-04-05T08:01:56;7.30;91.10
64796;DHT22;51229;51.980;6.722;2023-04-05T08:04:22;8.10;99.90
64796;DHT22;51229;51.980;6.722;2023-04-05T08:06:49;8.80;98.50
64796;DHT22;51229;51.980;6.722;2023-04-05T08:09:15;8.90;83.00
64796;DHT22;51229;51.980;6.722;2023-04-05T08:11:41;9.30;77.60
64796;DHT22;51229;51.980;6.722;2023-04-05T08:14:07;8.80;94.20
64796;DHT22;51229;51.980;6.722;2023-04-05T08:16:33;9.40;87.50
64796;DHT22;51229;51.980;6.722;2023-04-05T08:18:58;9.00;75.80
64796;DHT22;51229;51.980;6.722;2023-04-05T08:21:24;8.60;96.80
64796;DHT22;51229;51.980;6.722;2023-04-05T08:23:54;9.80;82.10
64796;DHT22;51229;51.980;6.722;2023-04-05T08:26:19;10.30;90.00
64796;DHT22;51229;51.980;6.722;2023-04-05T08:28:45;10.80;91.50
64796;DHT22;51229;51.980;6.722;2023-04-05T08:31:11;10.50;76.40
64796;DHT22;51229;51.980;6.722;2023-04-05T08:33:37;9.30;68.20
64796;DHT22;51229;51.980;6.722;2023-04-05T08:36:07;8.90;71.70
64796;DHT22;51229;51.980;6.722;2023-04-05T08:38:33;9.90;69.00
64796;DHT22;51229;51.980;6.722;2023-04-05T08:41:18;10.50;71.20
64796;DHT22;51229;51.980;6.722;2023-04-05T08:46:24;10.90;63.80
64796;DHT22;51229;51.980;6.722;2023-04-05T08:48:50;10.30;77.50
64796;DHT22;51229;51.980;6.722;2023-04-05T08:51:22;10.90;65.90
64796;DHT22;51229;51.980;6.722;2023-04-05T08:53:49;11.00;62.30
64796;DHT22;51229;51.980;6.722;2023-04-05T08:56:21;11.20;69.80
64796;DHT22;51229;51.980;6.722;2023-04-05T08:58:58;11.70;65.90
64796;DHT22;51229;51.980;6.722;2023-04-05T09:01:28;11.80;63.20
64796;DHT22;51229;51.980;6.722;2023-04-05T09:03:56;12.00;66.50
64796;DHT22;51229;51.980;6.722;2023-04-05T09:06:22;12.80;77.70
64796;DHT22;51229;51.980;6.722;2023-04-05T09:08:48;12.90;61.50
64796;DHT22;51229;51.980;6.722;2023-04-05T09:11:15;13.20;78.00
64796;DHT22;51229;51.980;6.722;2023-04-05T09:13:41;14.20;57.10
64796;DHT22;51229;51.980;6.722;2023-04-05T09:16:07;13.80;72.20
64796;DHT22;51229;51.980;6.722;2023-04-05T09:18:33;12.60;57.20
64796;DHT22;51229;51.980;6.722;2023-04-05T09:21:03;12.90;58.30
64796;DHT22;51229;51.980;6.722;2023-04-05T09:23:30;13.00;60.90
64796;DHT22;51229;51.980;6.722;2023-04-05T09:25:56;13.90;62.20
64796;DHT22;51229;51.980;6.722;2023-04-05T09:28:22;14.50;83.90
64796;DHT22;51229;51.980;6.722;2023-04-05T09:30:47;14.90;60.80
64796;DHT22;51229;51.980;6.722;2023-04-05T09:33:17;13.40;51.70
64796;DHT22;51229;51.980;6.722;2023-04-05T09:35:44;13.30;71.50
64796;DHT22;51229;51.980;6.722;2023-04-05T09:38:13;13.90;57.90
64796;DHT22;51229;51.980;6.722;2023-04-05T09:40:47;13.70;53.30
64796;DHT22;51229;51.980;6.722;2023-04-05T09:43:37;14.30;54.60
64796;DHT22;51229;51.980;6.722;2023-04-05T09:46:03;13.80;51.40
64796;DHT22;51229;51.980;6.722;2023-04-05T09:48:48;12.30;54.50
64796;DHT22;51229;51.980;6.722;2023-04-05T09:51:15;13.90;67.80
64796;DHT22;51229;51.980;6.722;2023-04-05T09:56:28;14.80;56.50
64796;DHT22;51229;51.980;6.722;2023-04-05T09:58:59;13.50;63.30
64796;DHT22;51229;51.980;6.722;2023-04-05T10:01:32;14.30;59.10
64796;DHT22;51229;51.980;6.722;2023-04-05T10:03:58;14.00;53.80
64796;DHT22;51229;51.980;6.722;2023-04-05T10:06:39;14.90;88.30
64796;DHT22;51229;51.980;6.722;2023-04-05T10:09:06;14.80;50.50
64796;DHT22;51229;51.980;6.722;2023-04-05T10:11:33;15.40;64.40
64796;DHT22;51229;51.980;6.722;2023-04-05T10:14:06;16.30;87.20
64796;DHT22;51229;51.980;6.722;2023-04-05T10:16:37;16.90;89.20
64796;DHT22;51229;51.980;6.722;2023-04-05T10:19:04;17.20;86.80
64796;DHT22;51229;51.980;6.722;2023-04-05T10:21:40;17.40;87.90
64796;DHT22;51229;51.980;6.722;2023-04-05T10:26:47;18.00;54.20
64796;DHT22;51229;51.980;6.722;2023-04-05T10:29:24;17.80;50.70
64796;DHT22;51229;51.980;6.722;2023-04-05T10:31:59;17.10;75.40
64796;DHT22;51229;51.980;6.722;2023-04-05T10:34:47;17.60;86.50
64796;DHT22;51229;51.980;6.722;2023-04-05T10:37:34;17.50;66.70
64796;DHT22;51229;51.980;6.722;2023-04-05T10:40:02;17.30;60.50
64796;DHT22;51229;51.980;6.722;2023-04-05T10:42:39;17.70;70.80
64796;DHT22;51229;51.980;6.722;2023-04-05T10:45:06;18.00;77.10
64796;DHT22;51229;51.980;6.722;2023-04-05T10:47:44;18.30;49.00
64796;DHT22;51229;51.980;6.722;2023-04-05T10:50:21;18.40;79.10
64796;DHT22;51229;51.980;6.722;2023-04-05T10:52:48;19.40;79.10
64796;DHT22;51229;51.980;6.722;2023-04-05T10:55:15;20.30;75.30
64796;DHT22;51229;51.980;6.722;2023-04-05T10:57:43;20.50;75.10
64796;DHT22;51229;51.980;6.722;2023-04-05T11:00:10;20.70;74.60
64796;DHT22;51229;51.980;6.722;2023-04-05T11:02:36;20.60;75.10
64796;DHT22;51229;51.980;6.722;2023-04-05T11:05:05;20.60;69.00
64796;DHT22;51229;51.980;6.722;2023-04-05T11:07:44;20.30;74.80
64796;DHT22;51229;51.980;6.722;2023-04-05T11:10:17;20.50;51.00
64796;DHT22;51229;51.980;6.722;2023-04-05T11:20:48;20.10;60.30
64796;DHT22;51229;51.980;6.722;2023-04-05T11:23:18;18.70;47.30
64796;DHT22;51229;51.980;6.722;2023-04-05T11:26:04;17.40;47.10
64796;DHT22;51229;51.980;6.722;2023-04-05T11:28:35;18.10;52.60
64796;DHT22;51229;51.980;6.722;2023-04-05T11:36:07;18.50;41.20
64796;DHT22;51229;51.980;6.722;2023-04-05T11:38:34;18.60;78.00
64796;DHT22;51229;51.980;6.722;2023-04-05T11:41:15;20.80;74.90
64796;DHT22;51229;51.980;6.722;2023-04-05T11:43:50;21.00;65.90
64796;DHT22;51229;51.980;6.722;2023-04-05T11:46:17;19.00;67.30
64796;DHT22;51229;51.980;6.722;2023-04-05T11:48:49;20.80;71.30
64796;DHT22;51229;51.980;6.722;2023-04-05T11:51:15;22.00;63.30
64796;DHT22;51229;51.980;6.722;2023-04-05T11:53:45;21.50;64.70
64796;DHT22;51229;51.980;6.722;2023-04-05T11:56:11;21.60;61.00
64796;DHT22;51229;51.980;6.722;2023-04-05T11:58:40;20.90;61.80
64796;DHT22;51229;51.980;6.722;2023-04-05T12:01:07;21.00;70.50
64796;DHT22;51229;51.980;6.722;2023-04-05T12:03:34;21.70;70.60
64796;DHT22;51229;51.980;6.722;2023-04-05T12:06:02;21.90;70.50
64796;DHT22;51229;51.980;6.722;2023-04-05T12:08:44;22.00;70.50
64796;DHT22;51229;51.980;6.722;2023-04-05T12:11:22;21.40;42.30
64796;DHT22;51229;51.980;6.722;2023-04-05T12:13:50;21.30;71.70
64796;DHT22;51229;51.980;6.722;2023-04-05T12:16:18;21.60;71.60
64796;DHT22;51229;51.980;6.722;2023-04-05T12:18:43;22.00;71.30
64796;DHT22;51229;51.980;6.722;2023-04-05T12:21:09;22.20;71.30
64796;DHT22;51229;51.980;6.722;2023-04-05T12:23:36;23.10;46.50
64796;DHT22;51229;51.980;6.722;2023-04-05T12:26:03;19.60;41.20
64796;DHT22;51229;51.980;6.722;2023-04-05T12:31:15;21.80;71.90
64796;DHT22;51229;51.980;6.722;2023-04-05T12:33:42;22.90;68.60
64796;DHT22;51229;51.980;6.722;2023-04-05T12:36:08;22.60;45.70
64796;DHT22;51229;51.980;6.722;2023-04-05T12:38:36;21.50;41.80
64796;DHT22;51229;51.980;6.722;2023-04-05T12:41:02;21.60;66.00
64796;DHT22;51229;51.980;6.722;2023-04-05T12:43:39;21.60;70.20
64796;DHT22;51229;51.980;6.722;2023-04-05T12:46:10;22.60;50.90
64796;DHT22;51229;51.980;6.722;2023-04-05T12:48:37;20.80;46.90
64796;DHT22;51229;51.980;6.722;2023-04-05T12:51:07;20.60;48.20
64796;DHT22;51229;51.980;6.722;2023-04-05T12:53:47;18.90;59.80
64796;DHT22;51229;51.980;6.722;2023-04-05T12:56:12;19.40;43.30
64796;DHT22;51229;51.980;6.722;2023-04-05T12:58:40;21.00;69.80
64796;DHT22;51229;51.980;6.722;2023-04-05T13:01:06;22.70;67.40
64796;DHT22;51229;51.980;6.722;2023-04-05T13:03:31;23.70;66.60
64796;DHT22;51229;51.980;6.722;2023-04-05T13:05:57;21.80;37.70
64796;DHT22;51229;51.980;6.722;2023-04-05T13:08:23;19.80;50.50
64796;DHT22;51229;51.980;6.722;2023-04-05T13:10:51;20.40;68.90
64796;DHT22;51229;51.980;6.722;2023-04-05T13:13:18;22.30;68.40
64796;DHT22;51229;51.980;6.722;2023-04-05T13:15:47;23.10;67.80
64796;DHT22;51229;51.980;6.722;2023-04-05T13:18:13;22.50;66.60
64796;DHT22;51229;51.980;6.722;2023-04-05T13:20:42;21.70;67.60
64796;DHT22;51229;51.980;6.722;2023-04-05T13:23:09;21.60;66.70
64796;DHT22;51229;51.980;6.722;2023-04-05T13:25:40;22.50;68.50
64796;DHT22;51229;51.980;6.722;2023-04-05T13:28:07;21.70;58.90
64796;DHT22;51229;51.980;6.722;2023-04-05T13:30:32;21.50;56.00
64796;DHT22;51229;51.980;6.722;2023-04-05T13:32:58;22.90;67.10
64796;DHT22;51229;51.980;6.722;2023-04-05T13:35:24;23.10;67.50
64796;DHT22;51229;51.980;6.722;2023-04-05T13:37:50;23.20;67.20
64796;DHT22;51229;51.980;6.722;2023-04-05T13:40:16;22.90;68.90
64796;DHT22;51229;51.980;6.722;2023-04-05T13:42:42;23.00;69.30
64796;DHT22;51229;51.980;6.722;2023-04-05T13:45:08;22.80;66.70
64796;DHT22;51229;51.980;6.722;2023-04-05T13:47:33;21.90;43.80
64796;DHT22;51229;51.980;6.722;2023-04-05T13:49:59;20.90;70.70
64796;DHT22;51229;51.980;6.722;2023-04-05T13:52:25;22.40;62.30
64796;DHT22;51229;51.980;6.722;2023-04-05T13:54:51;22.60;67.90
64796;DHT22;51229;51.980;6.722;2023-04-05T13:57:16;22.10;69.50
64796;DHT22;51229;51.980;6.722;2023-04-05T13:59:42;22.30;67.90
64796;DHT22;51229;51.980;6.722;2023-04-05T14:02:09;20.30;46.30
64796;DHT22;51229;51.980;6.722;2023-04-05T14:04:40;19.50;66.50
64796;DHT22;51229;51.980;6.722;2023-04-05T14:07:06;19.60;58.10
64796;DHT22;51229;51.980;6.722;2023-04-05T14:09:32;17.70;71.60
64796;DHT22;51229;51.980;6.722;2023-04-05T14:11:58;18.90;78.10
64796;DHT22;51229;51.980;6.722;2023-04-05T14:14:26;19.90;74.50
64796;DHT22;51229;51.980;6.722;2023-04-05T14:16:52;19.90;74.80
64796;DHT22;51229;51.980;6.722;2023-04-05T14:19:17;19.90;74.50
64796;DHT22;51229;51.980;6.722;2023-04-05T14:21:44;19.40;79.10
64796;DHT22;51229;51.980;6.722;2023-04-05T14:24:10;19.10;79.50
64796;DHT22;51229;51.980;6.722;2023-04-05T14:26:36;19.10;79.20
64796;DHT22;51229;51.980;6.722;2023-04-05T14:29:02;18.20;65.00
64796;DHT22;51229;51.980;6.722;2023-04-05T14:31:28;17.70;55.30
64796;DHT22;51229;51.980;6.722;2023-04-05T14:33:54;17.90;58.50
64796;DHT22;51229;51.980;6.722;2023-04-05T14:36:19;18.30;49.00
64796;DHT22;51229;51.980;6.722;2023-04-05T14:38:45;17.80;65.40
64796;DHT22;51229;51.980;6.722;2023-04-05T14:41:12;18.40;67.60
64796;DHT22;51229;51.980;6.722;2023-04-05T14:43:38;18.60;68.70
64796;DHT22;51229;51.980;6.722;2023-04-05T14:46:04;18.30;70.60
64796;DHT22;51229;51.980;6.722;2023-04-05T14:48:29;18.20;71.70
64796;DHT22;51229;51.980;6.722;2023-04-05T14:50:56;16.50;55.80
64796;DHT22;51229;51.980;6.722;2023-04-05T14:53:23;17.00;60.00
64796;DHT22;51229;51.980;6.722;2023-04-05T14:55:49;16.20;68.00
64796;DHT22;51229;51.980;6.722;2023-04-05T14:58:15;16.70;71.60
64796;DHT22;51229;51.980;6.722;2023-04-05T15:00:42;16.30;75.60
64796;DHT22;51229;51.980;6.722;2023-04-05T15:03:08;14.40;67.60
64796;DHT22;51229;51.980;6.722;2023-04-05T15:05:34;14.60;71.70
64796;DHT22;51229;51.980;6.722;2023-04-05T15:07:59;13.90;56.10
64796;DHT22;51229;51.980;6.722;2023-04-05T15:10:25;14.80;67.90
64796;DHT22;51229;51.980;6.722;2023-04-05T15:12:51;14.60;79.40
64796;DHT22;51229;51.980;6.722;2023-04-05T15:15:16;15.80;88.60
64796;DHT22;51229;51.980;6.722;2023-04-05T15:17:42;16.20;88.10
64796;DHT22;51229;51.980;6.722;2023-04-05T15:20:08;16.70;88.20
64796;DHT22;51229;51.980;6.722;2023-04-05T15:22:34;16.70;86.60
64796;DHT22;51229;51.980;6.722;2023-04-05T15:25:00;16.60;88.10
64796;DHT22;51229;51.980;6.722;2023-04-05T15:27:26;16.40;90.80
64796;DHT22;51229;51.980;6.722;2023-04-05T15:29:52;14.40;91.00
64796;DHT22;51229;51.980;6.722;2023-04-05T15:32:17;15.50;94.60
64796;DHT22;51229;51.980;6.722;2023-04-05T15:34:43;16.10;93.50
64796;DHT22;51229;51.980;6.722;2023-04-05T15:37:08;16.20;92.90
64796;DHT22;51229;51.980;6.722;2023-04-05T15:39:34;16.20;93.80
64796;DHT22;51229;51.980;6.722;2023-04-05T15:42:01;16.20;93.60
64796;DHT22;51229;51.980;6.722;2023-04-05T15:44:27;16.20;94.30
64796;DHT22;51229;51.980;6.722;2023-04-05T15:46:53;15.70;93.50
64796;DHT22;51229;51.980;6.722;2023-04-05T15:49:19;15.90;93.80
64796;DHT22;51229;51.980;6.722;2023-04-05T15:51:44;16.00;95.00
64796;DHT22;51229;51.980;6.722;2023-04-05T15:54:10;15.20;93.10
64796;DHT22;51229;51.980;6.722;2023-04-05T15:56:45;12.80;83.80
64796;DHT22;51229;51.980;6.722;2023-04-05T15:59:11;14.10;87.60
64796;DHT22;51229;51.980;6.722;2023-04-05T16:01:37;14.40;99.90
64796;DHT22;51229;51.980;6.722;2023-04-05T16:04:03;15.00;99.70
64796;DHT22;51229;51.980;6.722;2023-04-05T16:06:29;14.80;88.30
64796;DHT22;51229;51.980;6.722;2023-04-05T16:08:55;14.90;92.90
64796;DHT22;51229;51.980;6.722;2023-04-05T16:11:21;14.90;92.10
64796;DHT22;51229;51.980;6.722;2023-04-05T16:13:47;14.80;95.90
64796;DHT22;51229;51.980;6.722;2023-04-05T16:16:13;14.10;97.70
64796;DHT22;51229;51.980;6.722;2023-04-05T16:18:39;13.60;60.90
64796;DHT22;51229;51.980;6.722;2023-04-05T16:21:05;12.90;99.90
64796;DHT22;51229;51.980;6.722;2023-04-05T16:23:30;12.40;99.90
64796;DHT22;51229;51.980;6.722;2023-04-05T16:25:56;13.60;99.90
64796;DHT22;51229;51.980;6.722;2023-04-05T16:28:21;14.00;99.90